Time;durP1;ratioP1;P1;durP2;ratioP2;P2;SDS_P1;SDS_P2;PMS_P1;PMS_P2;Temp;Humidity;BMP_temperature;BMP_pressure;BME280_temperature;BME280_humidity;BME280_pressure;Samples;Min_cycle;Max_cycle;Signal;HPM_P1;HPM_P2
2022/12/08 00:01:09;;;;;;;6.53;5.07;;;6.10;99.90;;;;;;4963787;28;20177;-83
2022/12/08 00:03:35;;;;;;;7.37;4.80;;;6.10;99.90;;;;;;4977455;28;20247;-81
2022/12/08 00:11:38;;;;;;;5.93;4.93;;;6.10;99.90;;;;;;4976573;28;20495;-80
2022/12/08 00:14:04;;;;;;;5.60;5.00;;;6.10;99.90;;;;;;4977154;28;20172;-83
2022/12/08 00:16:30;;;;;;;5.27;4.73;;;6.10;99.90;;;;;;4977251;28;20182;-83
2022/12/08 00:18:56;;;;;;;6.70;5.33;;;6.20;99.90;;;;;;4974969;28;20180;-84
2022/12/08 00:21:21;;;;;;;7.57;5.43;;;6.10;99.90;;;;;;4975793;28;20183;-84
2022/12/08 00:23:49;;;;;;;5.53;4.93;;;6.10;99.90;;;;;;4977751;28;20180;-85
2022/12/08 00:26:15;;;;;;;6.70;4.87;;;6.10;99.90;;;;;;4976395;28;20267;-83
2022/12/08 00:28:40;;;;;;;6.93;5.20;;;6.30;99.90;;;;;;4975744;28;20262;-81
2022/12/08 00:31:08;;;;;;;5.67;4.87;;;6.10;99.90;;;;;;4979011;28;20188;-83
2022/12/08 00:33:36;;;;;;;5.80;4.83;;;6.10;99.90;;;;;;4990303;28;20180;-81
2022/12/08 00:36:13;;;;;;;5.50;4.83;;;6.10;99.90;;;;;;4975518;28;20196;-82
2022/12/08 00:38:43;;;;;;;5.00;4.43;;;6.10;99.90;;;;;;4979936;28;20786;-83
2022/12/08 00:41:14;;;;;;;5.93;4.87;;;6.10;99.90;;;;;;4975094;28;20191;-84
2022/12/08 00:43:40;;;;;;;4.90;4.40;;;6.10;99.90;;;;;;4975056;28;20230;-84
2022/12/08 00:46:06;;;;;;;5.93;5.07;;;6.00;99.90;;;;;;4974880;28;20267;-85
2022/12/08 00:48:34;;;;;;;5.10;4.50;;;6.00;99.90;;;;;;4973969;28;20279;-85
2022/12/08 00:51:00;;;;;;;5.70;4.70;;;6.00;99.90;;;;;;4976323;28;20183;-83
2022/12/08 00:53:25;;;;;;;6.27;5.43;;;6.00;99.90;;;;;;4974566;28;20208;-85
2022/12/08 00:55:51;;;;;;;6.13;5.33;;;6.10;99.90;;;;;;4981640;28;20223;-84
2022/12/08 00:58:16;;;;;;;6.67;4.90;;;6.00;99.90;;;;;;4975028;28;20167;-85
2022/12/08 01:00:45;;;;;;;7.10;4.67;;;6.00;99.90;;;;;;4969973;28;20208;-81
2022/12/08 01:03:13;;;;;;;5.93;4.70;;;6.20;99.90;;;;;;4974381;28;20183;-81
2022/12/08 01:05:39;;;;;;;6.30;5.20;;;6.00;99.90;;;;;;4979008;28;20278;-84
2022/12/08 01:08:06;;;;;;;6.43;5.10;;;6.00;99.90;;;;;;4974274;28;20267;-85
2022/12/08 01:10:35;;;;;;;7.07;4.53;;;6.00;99.90;;;;;;4967213;28;20210;-83
2022/12/08 01:13:01;;;;;;;6.80;4.53;;;6.00;99.90;;;;;;4965411;28;20222;-81
2022/12/08 01:15:27;;;;;;;6.00;4.93;;;5.90;99.90;;;;;;4971564;28;20177;-85
2022/12/08 01:17:54;;;;;;;7.53;4.60;;;5.90;99.90;;;;;;4987680;28;20202;-85
2022/12/08 01:20:20;;;;;;;5.47;4.33;;;6.00;99.90;;;;;;4972144;28;20267;-83
2022/12/08 01:22:48;;;;;;;4.87;4.20;;;6.00;99.90;;;;;;4958985;28;20295;-84
2022/12/08 01:25:13;;;;;;;5.87;4.80;;;5.90;99.90;;;;;;4962237;28;20220;-82
2022/12/08 01:27:41;;;;;;;5.70;4.20;;;5.90;99.90;;;;;;4974710;28;20223;-85
2022/12/08 01:30:10;;;;;;;6.23;4.27;;;6.00;99.90;;;;;;4973352;28;20242;-85
2022/12/08 01:32:35;;;;;;;4.97;4.20;;;5.90;99.90;;;;;;4967030;28;20208;-84
2022/12/08 01:35:01;;;;;;;5.70;4.70;;;6.00;99.90;;;;;;4969556;28;20199;-82
2022/12/08 01:37:28;;;;;;;6.00;4.40;;;6.00;99.90;;;;;;4972155;28;20378;-84
2022/12/08 01:39:54;;;;;;;5.63;4.10;;;6.00;99.90;;;;;;4972251;28;20306;-83
2022/12/08 01:42:24;;;;;;;4.53;3.97;;;6.00;99.90;;;;;;4977749;28;20259;-85
2022/12/08 01:44:58;;;;;;;4.57;4.17;;;6.00;99.90;;;;;;4971834;28;20188;-85
2022/12/08 01:47:29;;;;;;;5.20;4.00;;;6.00;99.90;;;;;;4960226;28;20186;-86
2022/12/08 01:49:55;;;;;;;5.80;3.73;;;6.10;99.90;;;;;;4974453;28;20223;-83
2022/12/08 01:52:38;;;;;;;4.20;3.77;;;6.10;99.90;;;;;;4974269;28;20254;-84
2022/12/08 01:55:29;;;;;;;5.30;3.93;;;6.10;99.90;;;;;;4973521;28;20191;-83
2022/12/08 01:58:04;;;;;;;4.20;3.80;;;6.10;99.90;;;;;;4974204;28;20200;-85
2022/12/08 02:00:30;;;;;;;5.37;4.07;;;6.10;99.90;;;;;;4965576;28;20280;-84
2022/12/08 02:03:00;;;;;;;4.67;4.10;;;6.20;99.90;;;;;;4988694;28;20270;-86
2022/12/08 02:05:31;;;;;;;4.03;3.63;;;6.20;99.90;;;;;;4986760;28;20224;-84
2022/12/08 02:07:58;;;;;;;4.13;3.70;;;6.30;99.90;;;;;;4972426;28;20194;-83
2022/12/08 02:10:29;;;;;;;5.37;3.80;;;6.10;99.90;;;;;;4976889;28;20180;-83
2022/12/08 02:12:56;;;;;;;4.20;3.63;;;6.10;99.90;;;;;;4978873;28;20223;-83
2022/12/08 02:15:38;;;;;;;4.30;3.60;;;6.10;99.90;;;;;;4977191;28;20186;-79
2022/12/08 02:18:21;;;;;;;5.60;3.70;;;6.20;99.90;;;;;;4977562;28;20207;-81
2022/12/08 02:21:02;;;;;;;4.70;4.10;;;6.20;99.90;;;;;;4972519;28;20184;-83
2022/12/08 02:23:55;;;;;;;5.80;4.17;;;6.20;99.90;;;;;;4979147;28;20184;-81
2022/12/08 02:26:59;;;;;;;5.13;4.03;;;6.20;99.90;;;;;;4963929;28;20278;-81
2022/12/08 02:29:49;;;;;;;4.37;3.53;;;6.20;99.90;;;;;;4973441;28;20216;-83
2022/12/08 02:32:44;;;;;;;5.77;3.80;;;6.30;99.90;;;;;;4977178;28;20358;-83
2022/12/08 02:35:50;;;;;;;6.70;4.13;;;6.20;99.90;;;;;;4977535;28;20233;-83
2022/12/08 02:38:31;;;;;;;4.27;3.70;;;6.20;99.90;;;;;;4980194;28;20210;-83
2022/12/08 02:41:12;;;;;;;4.30;3.73;;;6.30;99.90;;;;;;4977308;28;20271;-84
2022/12/08 02:43:46;;;;;;;4.73;3.73;;;6.30;99.90;;;;;;4976553;28;20209;-82
2022/12/08 02:46:23;;;;;;;5.33;3.73;;;6.40;99.90;;;;;;4976415;28;20191;-85
2022/12/08 02:48:51;;;;;;;4.47;3.73;;;6.30;99.90;;;;;;4971415;28;20181;-85
2022/12/08 02:51:17;;;;;;;5.03;4.13;;;6.30;99.90;;;;;;4976882;28;20206;-82
2022/12/08 02:53:43;;;;;;;5.77;3.80;;;6.30;99.90;;;;;;4982331;28;20188;-81
2022/12/08 02:56:50;;;;;;;4.67;3.73;;;6.30;99.90;;;;;;4958911;28;20234;-82
2022/12/08 02:59:47;;;;;;;4.33;3.43;;;6.30;99.90;;;;;;4972340;28;20310;-83
2022/12/08 03:02:16;;;;;;;3.73;3.33;;;6.30;99.90;;;;;;4981761;28;20330;-84
2022/12/08 03:05:02;;;;;;;3.90;3.50;;;6.30;99.90;;;;;;4974064;28;20208;-83
2022/12/08 03:07:36;;;;;;;3.77;3.40;;;6.30;99.90;;;;;;4986887;28;20192;-84
2022/12/08 03:10:11;;;;;;;5.00;3.83;;;6.30;99.90;;;;;;4976768;28;20191;-83
2022/12/08 03:12:47;;;;;;;4.60;4.07;;;6.30;99.90;;;;;;4968832;28;20262;-81
2022/12/08 03:15:19;;;;;;;4.57;4.07;;;6.30;99.90;;;;;;4977849;28;20168;-82
2022/12/08 03:17:53;;;;;;;5.37;4.40;;;6.30;99.90;;;;;;4976240;28;20187;-81
2022/12/08 03:20:24;;;;;;;5.90;3.80;;;6.30;99.90;;;;;;4965171;28;20290;-83
2022/12/08 03:22:57;;;;;;;5.33;3.93;;;6.40;99.90;;;;;;4976742;28;20180;-84
2022/12/08 03:25:26;;;;;;;3.80;3.40;;;6.30;99.90;;;;;;4982942;28;20189;-84
2022/12/08 03:27:52;;;;;;;4.57;3.50;;;6.30;99.90;;;;;;4971960;28;20266;-84
2022/12/08 03:30:22;;;;;;;3.67;3.10;;;6.30;99.90;;;;;;4972776;28;20188;-82
2022/12/08 03:32:51;;;;;;;4.03;3.50;;;6.30;99.90;;;;;;4975877;28;20212;-82
2022/12/08 03:35:22;;;;;;;3.90;3.10;;;6.30;99.90;;;;;;4973190;28;20203;-84
2022/12/08 03:37:48;;;;;;;3.60;3.00;;;6.30;99.90;;;;;;4972378;28;20255;-84
2022/12/08 03:40:17;;;;;;;3.43;3.07;;;6.40;99.90;;;;;;4976399;28;20267;-84
2022/12/08 03:42:42;;;;;;;3.60;3.20;;;6.40;99.90;;;;;;4973933;28;20184;-85
2022/12/08 03:45:08;;;;;;;3.67;3.07;;;6.40;99.90;;;;;;4973080;28;20181;-81
2022/12/08 03:47:34;;;;;;;3.63;2.90;;;6.40;99.90;;;;;;4994111;28;20195;-84
2022/12/08 03:49:59;;;;;;;3.90;3.20;;;6.40;99.90;;;;;;4976495;28;20198;-84
2022/12/08 03:52:25;;;;;;;3.23;2.93;;;6.40;99.90;;;;;;4962718;28;20267;-81
2022/12/08 03:54:51;;;;;;;3.90;3.00;;;6.40;99.90;;;;;;4980707;28;20200;-84
2022/12/08 03:57:19;;;;;;;3.00;2.80;;;6.40;99.90;;;;;;4976593;28;20195;-79
2022/12/08 03:59:44;;;;;;;3.47;3.17;;;6.40;99.90;;;;;;4977431;28;20201;-82
2022/12/08 04:02:10;;;;;;;3.37;3.00;;;6.40;99.90;;;;;;4980889;28;20207;-82
2022/12/08 04:04:35;;;;;;;3.40;2.77;;;6.50;99.90;;;;;;4975078;28;20268;-80
2022/12/08 04:07:01;;;;;;;3.10;2.60;;;6.30;99.90;;;;;;4972284;28;20183;-81
2022/12/08 04:09:26;;;;;;;2.87;2.53;;;6.30;99.90;;;;;;4975804;28;20318;-81
2022/12/08 04:11:52;;;;;;;2.53;2.33;;;6.30;99.90;;;;;;4975962;28;20203;-82
2022/12/08 04:14:18;;;;;;;3.20;2.77;;;6.30;99.90;;;;;;4975453;28;20214;-82
2022/12/08 04:16:45;;;;;;;3.70;2.80;;;6.30;99.90;;;;;;4981834;28;20176;-84
2022/12/08 04:19:11;;;;;;;3.33;2.73;;;6.20;99.90;;;;;;4975214;28;20180;-83
2022/12/08 04:21:37;;;;;;;3.77;2.70;;;6.20;99.90;;;;;;4974962;28;20269;-80
2022/12/08 04:24:05;;;;;;;2.63;2.43;;;6.20;99.90;;;;;;4972293;28;20189;-83
2022/12/08 04:26:33;;;;;;;2.43;2.13;;;6.20;99.90;;;;;;4976765;28;20187;-82
2022/12/08 04:28:58;;;;;;;3.17;2.50;;;6.20;99.90;;;;;;4976313;28;20234;-83
2022/12/08 04:31:24;;;;;;;3.90;2.70;;;6.20;99.90;;;;;;4975342;28;20270;-83
2022/12/08 04:33:49;;;;;;;3.00;2.70;;;6.20;99.90;;;;;;4976700;28;20184;-83
2022/12/08 04:36:15;;;;;;;3.43;2.80;;;6.30;99.90;;;;;;4977519;28;20189;-83
2022/12/08 04:38:41;;;;;;;3.27;2.97;;;6.20;99.90;;;;;;4966698;28;20227;-84
2022/12/08 04:41:09;;;;;;;3.93;3.00;;;6.20;99.90;;;;;;4982199;28;20207;-83
2022/12/08 04:43:35;;;;;;;4.20;3.00;;;6.20;99.90;;;;;;4966845;28;20267;-84
2022/12/08 04:46:06;;;;;;;4.00;2.77;;;6.20;99.90;;;;;;4971357;28;20176;-83
2022/12/08 04:48:35;;;;;;;3.97;2.77;;;6.20;99.90;;;;;;4974351;28;20212;-84
2022/12/08 04:51:00;;;;;;;4.53;3.57;;;6.20;99.90;;;;;;4973045;28;20188;-83
2022/12/08 04:53:26;;;;;;;3.23;2.93;;;6.20;99.90;;;;;;4976148;28;20296;-82
2022/12/08 04:55:54;;;;;;;3.43;2.77;;;6.20;99.90;;;;;;4975370;28;20196;-81
2022/12/08 04:58:22;;;;;;;3.93;2.97;;;6.10;99.90;;;;;;4970158;28;20493;-83
2022/12/08 05:00:51;;;;;;;5.90;3.30;;;6.20;99.90;;;;;;4977341;28;20219;-83
2022/12/08 05:03:16;;;;;;;4.33;3.30;;;6.20;99.90;;;;;;4979157;28;20207;-81
2022/12/08 05:05:45;;;;;;;4.50;3.43;;;6.30;99.90;;;;;;5001369;28;20476;-82
2022/12/08 05:08:13;;;;;;;3.73;3.23;;;6.20;99.90;;;;;;4976731;28;20210;-80
2022/12/08 05:10:41;;;;;;;3.63;3.10;;;6.10;99.90;;;;;;4983743;28;20187;-83
2022/12/08 05:13:06;;;;;;;4.07;3.33;;;6.50;99.90;;;;;;4974839;28;20196;-81
2022/12/08 05:15:32;;;;;;;3.73;3.07;;;6.10;99.90;;;;;;4970569;28;20172;-83
2022/12/08 05:17:57;;;;;;;5.47;3.77;;;6.10;99.90;;;;;;4974919;28;20180;-79
2022/12/08 05:20:26;;;;;;;5.97;4.30;;;6.10;99.90;;;;;;4974909;28;20176;-77
2022/12/08 05:22:56;;;;;;;4.80;3.80;;;6.10;99.90;;;;;;4974632;28;20207;-78
2022/12/08 05:25:24;;;;;;;5.97;3.90;;;6.10;99.90;;;;;;4974565;28;20190;-78
2022/12/08 05:27:50;;;;;;;3.70;3.20;;;6.10;99.90;;;;;;4975374;28;20215;-77
2022/12/08 05:30:15;;;;;;;4.43;3.60;;;6.10;99.90;;;;;;4972811;28;20177;-75
2022/12/08 05:32:41;;;;;;;4.40;3.50;;;6.10;99.90;;;;;;4976579;28;20269;-77
2022/12/08 05:35:07;;;;;;;4.40;3.83;;;6.20;99.90;;;;;;4974254;28;20204;-80
2022/12/08 05:37:33;;;;;;;5.83;3.93;;;6.10;99.90;;;;;;4974862;28;20243;-81
2022/12/08 05:39:58;;;;;;;4.70;3.73;;;6.10;99.90;;;;;;4973678;28;20215;-80
2022/12/08 05:42:24;;;;;;;5.00;3.80;;;6.10;99.90;;;;;;4960225;28;20177;-81
2022/12/08 05:44:50;;;;;;;6.10;4.53;;;6.10;99.90;;;;;;4968615;28;20184;-81
2022/12/08 05:47:15;;;;;;;5.77;4.33;;;6.20;99.90;;;;;;4970809;28;20200;-77
2022/12/08 05:49:43;;;;;;;6.17;4.60;;;6.20;99.90;;;;;;4973983;28;20196;-78
2022/12/08 05:52:11;;;;;;;5.33;4.37;;;6.20;99.90;;;;;;4973894;28;20246;-77
2022/12/08 05:54:40;;;;;;;5.70;4.27;;;6.20;99.90;;;;;;4978509;28;20224;-77
2022/12/08 05:57:12;;;;;;;7.50;4.20;;;6.30;99.90;;;;;;4972130;28;20192;-76
2022/12/08 05:59:38;;;;;;;6.30;4.23;;;6.20;99.90;;;;;;4973850;28;20188;-77
2022/12/08 06:02:07;;;;;;;7.20;5.03;;;6.20;99.90;;;;;;4974533;28;20211;-76
2022/12/08 06:04:35;;;;;;;6.13;4.73;;;6.20;99.90;;;;;;4972906;28;20208;-78
2022/12/08 06:07:03;;;;;;;6.67;4.90;;;6.20;99.90;;;;;;4973185;28;20229;-78
2022/12/08 06:09:29;;;;;;;6.53;4.87;;;6.20;99.90;;;;;;4973255;28;20259;-77
2022/12/08 06:12:00;;;;;;;6.20;4.67;;;6.20;99.90;;;;;;4974108;28;20199;-77
2022/12/08 06:14:26;;;;;;;7.80;5.63;;;6.20;99.90;;;;;;4971787;28;20199;-79
2022/12/08 06:16:51;;;;;;;7.93;5.77;;;6.20;99.90;;;;;;4974095;28;20194;-75
2022/12/08 06:19:19;;;;;;;8.50;6.23;;;6.20;99.90;;;;;;4972170;28;20180;-77
2022/12/08 06:21:45;;;;;;;9.47;6.53;;;6.20;99.90;;;;;;4972856;28;20266;-80
2022/12/08 06:24:10;;;;;;;9.33;6.30;;;6.20;99.90;;;;;;4968953;28;20265;-76
2022/12/08 06:26:40;;;;;;;9.20;6.30;;;6.20;99.90;;;;;;4972816;28;20204;-77
2022/12/08 06:29:06;;;;;;;9.10;6.53;;;6.30;99.90;;;;;;4973840;28;20214;-78
2022/12/08 06:31:31;;;;;;;7.27;5.80;;;6.20;99.90;;;;;;4966634;28;20271;-80
2022/12/08 06:34:02;;;;;;;8.63;6.17;;;6.20;99.90;;;;;;4974373;28;20199;-78
2022/12/08 06:36:28;;;;;;;8.97;5.67;;;6.20;99.90;;;;;;4977986;28;20305;-78
2022/12/08 06:38:56;;;;;;;6.93;5.10;;;6.20;99.90;;;;;;4972760;28;20184;-78
2022/12/08 06:41:22;;;;;;;6.40;5.23;;;6.20;99.90;;;;;;4973412;28;20188;-78
2022/12/08 06:43:50;;;;;;;9.23;6.17;;;6.20;99.90;;;;;;4972780;28;20202;-77
2022/12/08 06:46:18;;;;;;;9.47;6.43;;;6.30;99.90;;;;;;4973394;28;20200;-78
2022/12/08 06:48:44;;;;;;;8.73;6.07;;;6.30;99.90;;;;;;4973220;28;20203;-76
2022/12/08 06:51:23;;;;;;;9.00;6.80;;;6.30;99.90;;;;;;4973005;28;20176;-77
2022/12/08 06:53:49;;;;;;;9.37;6.67;;;6.30;99.90;;;;;;4972808;28;20176;-78
2022/12/08 06:56:15;;;;;;;8.73;6.03;;;6.30;99.90;;;;;;4962126;28;20207;-77
2022/12/08 06:58:42;;;;;;;8.00;5.93;;;6.30;99.90;;;;;;4973549;28;20300;-79
2022/12/08 07:01:09;;;;;;;6.80;5.20;;;6.30;99.90;;;;;;4964566;28;20341;-78
2022/12/08 07:03:36;;;;;;;9.20;6.00;;;6.30;99.90;;;;;;4965994;28;20393;-76
2022/12/08 07:06:02;;;;;;;9.57;6.57;;;6.30;99.90;;;;;;4976590;28;20263;-77
2022/12/08 07:08:27;;;;;;;8.70;6.30;;;6.30;99.90;;;;;;4976505;28;20291;-77
2022/12/08 07:10:55;;;;;;;8.13;5.90;;;6.30;99.90;;;;;;4998359;28;20279;-79
2022/12/08 07:13:23;;;;;;;7.90;5.97;;;6.30;99.90;;;;;;4976159;28;20231;-76
2022/12/08 07:15:49;;;;;;;7.50;6.20;;;6.30;99.90;;;;;;4968138;28;20207;-78
2022/12/08 07:18:15;;;;;;;8.57;6.30;;;6.30;99.90;;;;;;4976565;28;20195;-77
2022/12/08 07:20:43;;;;;;;10.47;6.47;;;6.30;99.90;;;;;;4980049;28;20266;-78
2022/12/08 07:23:08;;;;;;;7.70;5.63;;;6.30;99.90;;;;;;4976378;28;20184;-78
2022/12/08 07:25:34;;;;;;;6.97;5.33;;;6.30;99.90;;;;;;4981866;28;20194;-77
2022/12/08 07:28:00;;;;;;;7.93;6.33;;;6.30;99.90;;;;;;4994164;28;20195;-76
2022/12/08 07:30:28;;;;;;;7.80;5.77;;;6.30;99.90;;;;;;4976585;28;20219;-80
2022/12/08 07:32:54;;;;;;;6.57;5.50;;;6.30;99.90;;;;;;4997115;28;20283;-78
2022/12/08 07:35:21;;;;;;;6.97;5.03;;;6.30;99.90;;;;;;4976363;28;20271;-78
2022/12/08 07:37:49;;;;;;;6.50;4.67;;;6.30;99.90;;;;;;4975958;28;20200;-78
2022/12/08 07:40:17;;;;;;;5.50;4.33;;;6.30;99.90;;;;;;4976275;28;20184;-79
2022/12/08 07:42:42;;;;;;;5.47;4.60;;;6.30;99.90;;;;;;4976053;28;20229;-79
2022/12/08 07:45:13;;;;;;;5.20;4.17;;;6.30;99.90;;;;;;4979706;28;20180;-78
2022/12/08 07:47:48;;;;;;;6.60;4.67;;;6.30;99.90;;;;;;4976356;28;20227;-78
2022/12/08 07:50:16;;;;;;;6.40;4.27;;;6.30;99.90;;;;;;4975784;28;20211;-78
2022/12/08 07:52:43;;;;;;;4.93;3.83;;;6.30;99.90;;;;;;4976110;28;20203;-79
2022/12/08 07:55:11;;;;;;;4.53;4.07;;;6.30;99.90;;;;;;4984547;28;20208;-77
2022/12/08 07:57:40;;;;;;;4.17;3.73;;;6.30;99.90;;;;;;4969260;28;20209;-78
2022/12/08 08:00:06;;;;;;;4.37;3.80;;;6.30;99.90;;;;;;4959502;28;20276;-78
2022/12/08 08:02:34;;;;;;;5.10;3.87;;;6.30;99.90;;;;;;4974289;28;20222;-77
2022/12/08 08:05:00;;;;;;;6.57;4.43;;;6.30;99.90;;;;;;4970216;28;20218;-74
2022/12/08 08:07:25;;;;;;;5.73;4.57;;;6.30;99.90;;;;;;4975847;28;20184;-78
2022/12/08 08:09:51;;;;;;;5.70;4.50;;;6.40;99.90;;;;;;4976001;28;20204;-75
2022/12/08 08:12:19;;;;;;;6.60;4.47;;;6.40;99.90;;;;;;4976237;28;20250;-77
2022/12/08 08:14:49;;;;;;;7.00;4.77;;;6.40;99.90;;;;;;4975939;28;20199;-77
2022/12/08 08:17:18;;;;;;;6.00;4.33;;;6.40;99.90;;;;;;4977273;28;20204;-78
2022/12/08 08:19:45;;;;;;;6.40;4.87;;;6.40;99.90;;;;;;4975888;28;20191;-77
2022/12/08 08:22:10;;;;;;;6.87;4.97;;;6.40;99.90;;;;;;4974207;28;20219;-77
2022/12/08 08:24:36;;;;;;;8.33;4.80;;;6.40;99.90;;;;;;4975676;28;20184;-78
2022/12/08 08:27:04;;;;;;;6.00;4.67;;;6.40;99.90;;;;;;4976157;28;20197;-75
2022/12/08 08:29:30;;;;;;;5.80;4.17;;;6.40;99.90;;;;;;4975453;28;20223;-78
2022/12/08 08:31:58;;;;;;;6.70;5.00;;;6.40;99.90;;;;;;4975287;28;20249;-75
2022/12/08 08:34:25;;;;;;;6.57;5.23;;;6.40;99.90;;;;;;4975309;28;20211;-76
2022/12/08 08:36:51;;;;;;;7.20;4.90;;;6.40;99.90;;;;;;4989243;28;20263;-75
2022/12/08 08:39:17;;;;;;;6.23;4.93;;;6.50;99.90;;;;;;4961234;28;20214;-74
2022/12/08 08:41:42;;;;;;;7.47;5.37;;;6.50;99.90;;;;;;4975614;28;20224;-77
2022/12/08 08:44:11;;;;;;;6.23;5.27;;;6.40;99.90;;;;;;4974713;28;20274;-75
2022/12/08 08:46:40;;;;;;;7.90;4.73;;;6.50;99.90;;;;;;4975323;28;20264;-78
2022/12/08 08:49:06;;;;;;;7.87;5.00;;;6.50;99.90;;;;;;4974968;28;20295;-77
2022/12/08 08:51:34;;;;;;;7.97;5.20;;;6.60;99.90;;;;;;4979083;28;20262;-78
2022/12/08 08:54:02;;;;;;;6.50;5.37;;;6.60;99.90;;;;;;4969023;28;20200;-78
2022/12/08 08:56:27;;;;;;;7.97;5.90;;;6.50;99.90;;;;;;4974016;28;20172;-78
2022/12/08 08:58:53;;;;;;;6.40;5.50;;;6.50;99.90;;;;;;4975312;28;20171;-77
2022/12/08 09:01:29;;;;;;;7.40;6.17;;;6.50;99.90;;;;;;4991638;28;20360;-77
2022/12/08 09:03:57;;;;;;;8.70;6.30;;;6.60;99.90;;;;;;4975449;28;20275;-76
2022/12/08 09:06:23;;;;;;;7.37;5.83;;;6.60;99.90;;;;;;4975580;28;20188;-78
2022/12/08 09:08:51;;;;;;;7.50;6.10;;;6.60;99.90;;;;;;4977168;28;20199;-78
2022/12/08 09:11:22;;;;;;;10.53;6.43;;;6.60;99.90;;;;;;4980134;28;20175;-78
2022/12/08 09:13:49;;;;;;;8.43;6.00;;;6.60;99.90;;;;;;4961863;28;20212;-78
2022/12/08 09:16:14;;;;;;;9.63;6.07;;;6.70;99.90;;;;;;4974518;28;20194;-78
2022/12/08 09:18:42;;;;;;;6.97;5.83;;;6.70;99.90;;;;;;4965966;28;20182;-78
2022/12/08 09:21:21;;;;;;;7.53;6.27;;;6.60;99.90;;;;;;4976490;28;20224;-76
2022/12/08 09:23:57;;;;;;;7.57;5.90;;;6.70;99.90;;;;;;4974871;28;20180;-76
2022/12/08 09:26:28;;;;;;;9.47;5.33;;;6.70;99.90;;;;;;4987807;28;20203;-77
2022/12/08 09:28:57;;;;;;;5.40;4.80;;;6.90;99.90;;;;;;4974084;28;20194;-78
2022/12/08 09:31:23;;;;;;;7.23;5.00;;;6.70;99.90;;;;;;4974338;28;20211;-78
2022/12/08 09:33:52;;;;;;;6.77;5.23;;;6.70;99.90;;;;;;4974322;28;20212;-76
2022/12/08 09:36:22;;;;;;;7.37;5.17;;;6.70;99.90;;;;;;4974308;28;20175;-77
2022/12/08 09:38:52;;;;;;;7.07;5.53;;;6.80;99.90;;;;;;4973633;28;20391;-78
2022/12/08 09:41:45;;;;;;;7.07;5.27;;;6.80;99.90;;;;;;4964049;28;20271;-76
2022/12/08 09:44:25;;;;;;;6.73;5.63;;;6.80;99.90;;;;;;4972904;28;20191;-78
2022/12/08 09:46:52;;;;;;;8.00;5.50;;;6.80;99.90;;;;;;4968404;28;20179;-77
2022/12/08 09:49:22;;;;;;;8.67;5.80;;;6.80;99.90;;;;;;4982960;28;20234;-78
2022/12/08 09:51:48;;;;;;;7.70;5.40;;;6.80;99.90;;;;;;4973653;28;20204;-76
2022/12/08 09:54:24;;;;;;;8.37;6.00;;;6.80;99.90;;;;;;4973664;28;20192;-77
2022/12/08 09:56:57;;;;;;;6.53;5.43;;;6.80;99.90;;;;;;4974280;28;20180;-77
2022/12/08 09:59:33;;;;;;;6.53;5.00;;;6.80;99.90;;;;;;4973855;28;20269;-78
2022/12/08 10:02:04;;;;;;;6.93;5.40;;;6.80;99.90;;;;;;4973682;28;20195;-75
2022/12/08 10:04:35;;;;;;;9.43;6.00;;;6.80;99.90;;;;;;4973742;28;20191;-78
2022/12/08 10:07:25;;;;;;;6.87;4.93;;;6.90;99.90;;;;;;4973758;28;20180;-77
2022/12/08 10:10:35;;;;;;;7.63;4.70;;;6.90;99.90;;;;;;4973396;28;20191;-77
2022/12/08 10:13:39;;;;;;;5.83;4.00;;;6.90;99.90;;;;;;4951066;28;20224;-77
2022/12/08 10:16:11;;;;;;;6.67;4.80;;;6.90;99.90;;;;;;4968164;28;20175;-77
2022/12/08 10:18:37;;;;;;;5.60;4.30;;;6.90;99.90;;;;;;4980060;28;20203;-78
2022/12/08 10:21:19;;;;;;;5.70;4.00;;;6.80;99.90;;;;;;4973725;28;20184;-78
2022/12/08 10:23:50;;;;;;;4.60;4.00;;;6.80;99.90;;;;;;4973791;28;20190;-76
2022/12/08 10:26:18;;;;;;;5.00;3.90;;;6.80;99.90;;;;;;4966299;28;20268;-76
2022/12/08 10:28:47;;;;;;;4.67;3.30;;;6.80;99.90;;;;;;4976592;28;20200;-79
2022/12/08 10:31:23;;;;;;;3.33;2.90;;;6.80;99.90;;;;;;4996989;28;20203;-77
2022/12/08 10:33:57;;;;;;;4.50;3.20;;;6.70;99.90;;;;;;4976387;28;20205;-77
2022/12/08 10:36:47;;;;;;;5.30;4.17;;;6.70;99.90;;;;;;4977441;28;20263;-77
2022/12/08 10:39:44;;;;;;;5.10;3.90;;;6.70;99.90;;;;;;4977326;28;20204;-77
2022/12/08 10:42:13;;;;;;;4.37;3.30;;;6.70;99.90;;;;;;4976472;28;20191;-77
2022/12/08 10:44:56;;;;;;;5.00;3.50;;;6.80;99.90;;;;;;4977492;28;20215;-78
2022/12/08 10:47:25;;;;;;;4.33;3.20;;;6.70;99.90;;;;;;4976064;28;20235;-78
2022/12/08 10:50:20;;;;;;;6.37;3.43;;;6.70;99.90;;;;;;4976886;28;20194;-78
2022/12/08 10:52:55;;;;;;;4.20;3.37;;;6.70;99.90;;;;;;4963499;28;20236;-77
2022/12/08 10:55:20;;;;;;;4.23;3.30;;;6.80;99.90;;;;;;4976130;28;20280;-78
2022/12/08 10:57:49;;;;;;;4.20;3.33;;;6.80;99.90;;;;;;4977072;28;20443;-78
2022/12/08 11:00:18;;;;;;;5.30;3.53;;;6.80;99.90;;;;;;4976898;28;20271;-78
2022/12/08 11:03:04;;;;;;;5.60;3.83;;;6.80;99.90;;;;;;4977041;28;20295;-78
2022/12/08 11:05:37;;;;;;;4.13;3.43;;;6.80;99.90;;;;;;4974987;28;20176;-77
2022/12/08 11:08:06;;;;;;;4.47;3.83;;;6.80;99.90;;;;;;4993919;28;20212;-78
2022/12/08 11:10:34;;;;;;;4.20;3.33;;;6.90;99.90;;;;;;4976814;28;20204;-78
2022/12/08 11:13:03;;;;;;;4.37;3.50;;;7.00;99.90;;;;;;4976906;28;20223;-76
2022/12/08 11:15:36;;;;;;;5.07;4.00;;;7.20;99.90;;;;;;4973922;28;20177;-75
2022/12/08 11:18:23;;;;;;;4.07;3.37;;;7.10;99.90;;;;;;4976179;28;20180;-77
2022/12/08 11:21:01;;;;;;;4.17;3.23;;;7.20;99.90;;;;;;4970593;28;20179;-77
2022/12/08 11:23:28;;;;;;;4.40;3.50;;;7.20;99.90;;;;;;4976878;28;20350;-78
2022/12/08 11:26:00;;;;;;;4.37;3.20;;;7.30;99.90;;;;;;4976757;28;20188;-78
2022/12/08 11:28:27;;;;;;;4.10;3.20;;;7.30;99.90;;;;;;4976728;28;20665;-79
2022/12/08 11:31:00;;;;;;;3.77;3.37;;;7.30;99.90;;;;;;4976973;28;20183;-78
2022/12/08 11:33:29;;;;;;;5.03;3.47;;;7.40;99.90;;;;;;4976111;28;20230;-78
2022/12/08 11:35:55;;;;;;;3.93;3.20;;;7.40;99.90;;;;;;4976471;28;20295;-77
2022/12/08 11:38:25;;;;;;;6.13;3.90;;;7.40;99.90;;;;;;4972518;28;20197;-79
2022/12/08 11:40:59;;;;;;;7.00;3.70;;;7.40;99.90;;;;;;4978950;28;20183;-78
2022/12/08 11:43:33;;;;;;;4.93;3.90;;;7.50;99.90;;;;;;4982885;28;20200;-78
2022/12/08 11:46:01;;;;;;;8.37;4.60;;;7.40;99.90;;;;;;4976266;28;20199;-73
2022/12/08 11:48:45;;;;;;;6.67;4.30;;;7.60;99.90;;;;;;4976454;28;20239;-77
2022/12/08 11:51:22;;;;;;;7.07;4.20;;;7.40;99.90;;;;;;4974228;28;20179;-76
2022/12/08 11:54:17;;;;;;;9.40;4.30;;;7.40;99.90;;;;;;4975866;28;20273;-78
2022/12/08 11:56:52;;;;;;;5.63;4.30;;;7.40;99.90;;;;;;4971910;28;20811;-77
2022/12/08 11:59:21;;;;;;;4.50;3.63;;;7.40;99.90;;;;;;4976015;28;20176;-77
2022/12/08 12:01:49;;;;;;;5.67;3.37;;;7.40;99.90;;;;;;4976227;28;20520;-79
2022/12/08 12:04:27;;;;;;;3.73;2.90;;;7.40;99.90;;;;;;4974058;28;20180;-78
2022/12/08 12:07:30;;;;;;;3.90;3.00;;;7.50;99.90;;;;;;4987207;28;20176;-77
2022/12/08 12:10:23;;;;;;;4.30;3.00;;;7.50;99.90;;;;;;4991756;28;20234;-77
2022/12/08 12:12:54;;;;;;;4.40;3.30;;;7.50;99.90;;;;;;4975447;28;20204;-78
2022/12/08 12:15:38;;;;;;;5.47;3.40;;;7.50;99.90;;;;;;4975234;28;20200;-78
2022/12/08 12:18:26;;;;;;;5.87;3.90;;;7.50;99.90;;;;;;4969568;28;20172;-79
2022/12/08 12:21:08;;;;;;;5.57;3.40;;;7.50;99.90;;;;;;4976272;28;20200;-79
2022/12/08 12:23:42;;;;;;;5.50;3.20;;;7.50;99.90;;;;;;4964620;28;20227;-79
2022/12/08 12:26:16;;;;;;;4.03;3.30;;;7.50;99.90;;;;;;4967567;28;20195;-80
2022/12/08 12:28:51;;;;;;;5.93;3.20;;;7.50;99.90;;;;;;4963565;28;20191;-79
2022/12/08 12:31:41;;;;;;;4.37;2.70;;;7.50;99.90;;;;;;4968975;28;20267;-79
2022/12/08 12:34:06;;;;;;;4.93;3.10;;;7.50;99.90;;;;;;4969020;28;20208;-79
2022/12/08 12:36:49;;;;;;;5.53;2.60;;;7.40;99.90;;;;;;4972262;28;20184;-79
2022/12/08 12:39:24;;;;;;;6.83;3.20;;;7.50;99.90;;;;;;4972460;28;20184;-80
2022/12/08 12:41:58;;;;;;;4.70;2.90;;;7.50;99.90;;;;;;4967573;28;20218;-79
2022/12/08 12:44:35;;;;;;;4.90;3.10;;;7.50;99.90;;;;;;4972615;28;20323;-79
2022/12/08 12:47:06;;;;;;;4.47;2.90;;;7.50;99.90;;;;;;4976960;28;20305;-78
2022/12/08 12:49:37;;;;;;;4.67;3.07;;;7.50;99.90;;;;;;4983426;28;20191;-79
2022/12/08 12:52:11;;;;;;;3.30;2.80;;;7.40;99.90;;;;;;4987645;28;20226;-78
2022/12/08 12:54:42;;;;;;;4.07;2.90;;;7.50;99.90;;;;;;4963442;28;20225;-78
2022/12/08 12:57:08;;;;;;;7.37;3.50;;;7.40;99.90;;;;;;4959716;28;20194;-80
2022/12/08 12:59:54;;;;;;;5.67;3.93;;;7.60;99.90;;;;;;4978084;28;20508;-78
2022/12/08 13:02:42;;;;;;;4.37;3.00;;;7.40;99.90;;;;;;4975285;28;20184;-76
2022/12/08 13:05:25;;;;;;;4.07;3.07;;;7.50;99.90;;;;;;4971076;28;20193;-76
2022/12/08 13:07:55;;;;;;;4.40;3.10;;;7.50;99.90;;;;;;4961561;28;20184;-79
2022/12/08 13:10:31;;;;;;;4.63;2.73;;;7.50;99.90;;;;;;4975565;28;20168;-78
2022/12/08 13:13:09;;;;;;;3.40;2.57;;;7.50;99.90;;;;;;4987327;28;20214;-79
2022/12/08 13:15:39;;;;;;;3.90;2.60;;;7.50;99.90;;;;;;4962960;28;20202;-77
2022/12/08 13:18:17;;;;;;;3.67;2.57;;;7.50;99.90;;;;;;4972258;28;20200;-77
2022/12/08 13:20:49;;;;;;;3.43;2.90;;;7.50;99.90;;;;;;4962717;28;20171;-78
2022/12/08 13:23:44;;;;;;;4.17;2.50;;;7.50;99.90;;;;;;4964089;28;20560;-79